sensor_id;sensor_type;location;lat;lon;timestamp;temperature;humidity
47576;DHT22;33304;52.456;13.328;2023-06-14T00:02:21;15.10;17.80
47576;DHT22;33304;52.456;13.328;2023-06-14T00:04:48;15.10;18.00
47576;DHT22;33304;52.456;13.328;2023-06-14T00:07:17;15.10;18.00
47576;DHT22;33304;52.456;13.328;2023-06-14T00:09:44;15.00;18.40
47576;DHT22;33304;52.456;13.328;2023-06-14T00:12:11;15.00;18.60
47576;DHT22;33304;52.456;13.328;2023-06-14T00:14:39;15.00;18.80
47576;DHT22;33304;52.456;13.328;2023-06-14T00:17:06;15.00;19.00
47576;DHT22;33304;52.456;13.328;2023-06-14T00:19:34;15.00;19.10
47576;DHT22;33304;52.456;13.328;2023-06-14T00:22:02;15.00;19.10
47576;DHT22;33304;52.456;13.328;2023-06-14T00:24:30;15.00;19.20
47576;DHT22;33304;52.456;13.328;2023-06-14T00:26:57;15.10;19.10
47576;DHT22;33304;52.456;13.328;2023-06-14T00:29:24;15.00;19.30
47576;DHT22;33304;52.456;13.328;2023-06-14T00:31:52;15.00;19.60
47576;DHT22;33304;52.456;13.328;2023-06-14T00:34:19;15.00;19.90
47576;DHT22;33304;52.456;13.328;2023-06-14T00:36:47;14.90;20.00
47576;DHT22;33304;52.456;13.328;2023-06-14T00:39:14;15.00;20.20
47576;DHT22;33304;52.456;13.328;2023-06-14T00:41:41;14.90;20.40
47576;DHT22;33304;52.456;13.328;2023-06-14T00:44:08;14.90;20.70
47576;DHT22;33304;52.456;13.328;2023-06-14T00:46:35;14.90;21.60
47576;DHT22;33304;52.456;13.328;2023-06-14T00:49:04;14.90;21.20
47576;DHT22;33304;52.456;13.328;2023-06-14T00:51:32;14.90;21.40
47576;DHT22;33304;52.456;13.328;2023-06-14T00:53:59;14.80;21.50
47576;DHT22;33304;52.456;13.328;2023-06-14T00:56:26;14.80;21.80
47576;DHT22;33304;52.456;13.328;2023-06-14T00:58:54;14.80;22.20
47576;DHT22;33304;52.456;13.328;2023-06-14T01:01:22;14.80;22.40
47576;DHT22;33304;52.456;13.328;2023-06-14T01:03:49;14.80;22.40
47576;DHT22;33304;52.456;13.328;2023-06-14T01:06:25;14.80;22.90
47576;DHT22;33304;52.456;13.328;2023-06-14T01:09:03;14.80;23.00
47576;DHT22;33304;52.456;13.328;2023-06-14T01:11:38;14.70;23.20
47576;DHT22;33304;52.456;13.328;2023-06-14T01:14:09;14.70;24.00
47576;DHT22;33304;52.456;13.328;2023-06-14T01:16:38;14.60;24.20
47576;DHT22;33304;52.456;13.328;2023-06-14T01:19:10;14.60;24.50
47576;DHT22;33304;52.456;13.328;2023-06-14T01:21:41;14.60;25.20
47576;DHT22;33304;52.456;13.328;2023-06-14T01:24:10;14.50;25.10
47576;DHT22;33304;52.456;13.328;2023-06-14T01:26:38;14.60;25.20
47576;DHT22;33304;52.456;13.328;2023-06-14T01:29:12;14.60;25.20
47576;DHT22;33304;52.456;13.328;2023-06-14T01:31:45;14.50;25.10
47576;DHT22;33304;52.456;13.328;2023-06-14T01:34:13;14.50;25.20
47576;DHT22;33304;52.456;13.328;2023-06-14T01:36:44;14.60;25.20
47576;DHT22;33304;52.456;13.328;2023-06-14T01:39:14;14.60;25.30
47576;DHT22;33304;52.456;13.328;2023-06-14T01:41:42;14.60;25.20
47576;DHT22;33304;52.456;13.328;2023-06-14T01:44:12;14.50;25.10
47576;DHT22;33304;52.456;13.328;2023-06-14T01:46:42;14.60;25.30
47576;DHT22;33304;52.456;13.328;2023-06-14T01:49:10;14.50;25.20
47576;DHT22;33304;52.456;13.328;2023-06-14T01:51:37;14.50;25.10
47576;DHT22;33304;52.456;13.328;2023-06-14T01:54:04;14.50;25.10
47576;DHT22;33304;52.456;13.328;2023-06-14T01:56:34;14.50;25.10
47576;DHT22;33304;52.456;13.328;2023-06-14T01:59:01;14.40;25.10
47576;DHT22;33304;52.456;13.328;2023-06-14T02:01:28;14.50;25.10
47576;DHT22;33304;52.456;13.328;2023-06-14T02:03:56;14.40;25.10
47576;DHT22;33304;52.456;13.328;2023-06-14T02:06:26;14.40;25.10
47576;DHT22;33304;52.456;13.328;2023-06-14T02:08:53;14.40;25.60
47576;DHT22;33304;52.456;13.328;2023-06-14T02:11:20;14.30;26.30
47576;DHT22;33304;52.456;13.328;2023-06-14T02:13:48;14.40;25.70
47576;DHT22;33304;52.456;13.328;2023-06-14T02:16:16;14.40;25.70
47576;DHT22;33304;52.456;13.328;2023-06-14T02:18:43;14.30;26.00
47576;DHT22;33304;52.456;13.328;2023-06-14T02:21:10;14.30;26.10
47576;DHT22;33304;52.456;13.328;2023-06-14T02:23:38;14.30;26.20
47576;DHT22;33304;52.456;13.328;2023-06-14T02:26:05;14.30;26.20
47576;DHT22;33304;52.456;13.328;2023-06-14T02:28:34;14.30;26.30
47576;DHT22;33304;52.456;13.328;2023-06-14T02:31:04;14.30;26.40
47576;DHT22;33304;52.456;13.328;2023-06-14T02:33:31;14.30;26.40
47576;DHT22;33304;52.456;13.328;2023-06-14T02:35:58;14.20;26.60
47576;DHT22;33304;52.456;13.328;2023-06-14T02:38:26;14.20;26.80
47576;DHT22;33304;52.456;13.328;2023-06-14T02:40:53;14.10;26.80
47576;DHT22;33304;52.456;13.328;2023-06-14T02:43:20;14.20;27.10
47576;DHT22;33304;52.456;13.328;2023-06-14T02:45:47;14.20;26.90
47576;DHT22;33304;52.456;13.328;2023-06-14T02:48:15;14.20;26.90
47576;DHT22;33304;52.456;13.328;2023-06-14T02:50:42;14.20;27.20
47576;DHT22;33304;52.456;13.328;2023-06-14T02:53:09;14.20;27.40
47576;DHT22;33304;52.456;13.328;2023-06-14T02:55:37;14.10;27.30
47576;DHT22;33304;52.456;13.328;2023-06-14T02:58:06;14.20;27.70
47576;DHT22;33304;52.456;13.328;2023-06-14T03:00:34;14.10;27.80
47576;DHT22;33304;52.456;13.328;2023-06-14T03:03:02;14.10;28.00
47576;DHT22;33304;52.456;13.328;2023-06-14T03:05:32;14.10;28.10
47576;DHT22;33304;52.456;13.328;2023-06-14T03:08:00;14.10;28.10
47576;DHT22;33304;52.456;13.328;2023-06-14T03:10:27;14.10;28.20
47576;DHT22;33304;52.456;13.328;2023-06-14T03:12:55;14.00;28.30
47576;DHT22;33304;52.456;13.328;2023-06-14T03:15:22;14.10;28.40
47576;DHT22;33304;52.456;13.328;2023-06-14T03:17:51;14.10;28.40
47576;DHT22;33304;52.456;13.328;2023-06-14T03:20:20;14.10;28.50
47576;DHT22;33304;52.456;13.328;2023-06-14T03:22:49;14.10;28.70
47576;DHT22;33304;52.456;13.328;2023-06-14T03:25:16;14.10;28.50
47576;DHT22;33304;52.456;13.328;2023-06-14T03:27:46;14.10;28.40
47576;DHT22;33304;52.456;13.328;2023-06-14T03:30:14;14.10;28.70
47576;DHT22;33304;52.456;13.328;2023-06-14T03:32:43;14.20;28.40
47576;DHT22;33304;52.456;13.328;2023-06-14T03:35:11;14.10;28.40
47576;DHT22;33304;52.456;13.328;2023-06-14T03:37:43;14.10;28.50
47576;DHT22;33304;52.456;13.328;2023-06-14T03:40:13;14.10;28.50
47576;DHT22;33304;52.456;13.328;2023-06-14T03:42:42;14.10;28.40
47576;DHT22;33304;52.456;13.328;2023-06-14T03:45:10;14.10;28.60
47576;DHT22;33304;52.456;13.328;2023-06-14T03:47:37;14.20;28.60
47576;DHT22;33304;52.456;13.328;2023-06-14T03:50:05;14.10;28.60
47576;DHT22;33304;52.456;13.328;2023-06-14T03:52:33;14.20;28.70
47576;DHT22;33304;52.456;13.328;2023-06-14T03:55:00;14.20;28.50
47576;DHT22;33304;52.456;13.328;2023-06-14T03:57:30;14.20;28.30
47576;DHT22;33304;52.456;13.328;2023-06-14T03:59:58;14.30;28.20
47576;DHT22;33304;52.456;13.328;2023-06-14T04:02:26;14.40;28.10
47576;DHT22;33304;52.456;13.328;2023-06-14T04:04:54;14.40;28.20
47576;DHT22;33304;52.456;13.328;2023-06-14T04:07:22;14.30;28.20
47576;DHT22;33304;52.456;13.328;2023-06-14T04:09:49;14.40;28.10
47576;DHT22;33304;52.456;13.328;2023-06-14T04:12:16;14.40;28.10
47576;DHT22;33304;52.456;13.328;2023-06-14T04:14:44;14.40;28.20
47576;DHT22;33304;52.456;13.328;2023-06-14T04:17:12;14.30;28.30
47576;DHT22;33304;52.456;13.328;2023-06-14T04:19:42;14.40;29.00
47576;DHT22;33304;52.456;13.328;2023-06-14T04:22:10;14.50;28.20
47576;DHT22;33304;52.456;13.328;2023-06-14T04:24:37;14.60;28.00
47576;DHT22;33304;52.456;13.328;2023-06-14T04:27:05;14.60;27.90
47576;DHT22;33304;52.456;13.328;2023-06-14T04:29:32;14.70;27.60
47576;DHT22;33304;52.456;13.328;2023-06-14T04:32:06;14.80;27.30
47576;DHT22;33304;52.456;13.328;2023-06-14T04:34:37;14.80;27.70
47576;DHT22;33304;52.456;13.328;2023-06-14T04:37:06;14.80;27.60
47576;DHT22;33304;52.456;13.328;2023-06-14T04:39:36;14.80;26.90
47576;DHT22;33304;52.456;13.328;2023-06-14T04:42:04;14.90;26.70
47576;DHT22;33304;52.456;13.328;2023-06-14T04:44:33;14.90;26.60
47576;DHT22;33304;52.456;13.328;2023-06-14T04:47:05;15.00;26.60
47576;DHT22;33304;52.456;13.328;2023-06-14T04:49:32;15.10;26.40
47576;DHT22;33304;52.456;13.328;2023-06-14T04:52:00;15.10;25.60
47576;DHT22;33304;52.456;13.328;2023-06-14T04:54:33;15.20;25.70
47576;DHT22;33304;52.456;13.328;2023-06-14T04:57:04;15.30;25.90
47576;DHT22;33304;52.456;13.328;2023-06-14T04:59:31;15.40;25.80
47576;DHT22;33304;52.456;13.328;2023-06-14T05:01:59;15.40;25.80
47576;DHT22;33304;52.456;13.328;2023-06-14T05:04:28;15.50;25.80
47576;DHT22;33304;52.456;13.328;2023-06-14T05:06:56;15.60;25.80
47576;DHT22;33304;52.456;13.328;2023-06-14T05:09:23;15.60;24.60
47576;DHT22;33304;52.456;13.328;2023-06-14T05:11:50;15.70;24.00
47576;DHT22;33304;52.456;13.328;2023-06-14T05:14:17;15.70;24.20
47576;DHT22;33304;52.456;13.328;2023-06-14T05:16:45;15.80;23.20
47576;DHT22;33304;52.456;13.328;2023-06-14T05:19:14;15.90;23.00
47576;DHT22;33304;52.456;13.328;2023-06-14T05:21:45;15.90;22.90
47576;DHT22;33304;52.456;13.328;2023-06-14T05:24:12;15.90;22.10
47576;DHT22;33304;52.456;13.328;2023-06-14T05:26:39;16.00;22.00
47576;DHT22;33304;52.456;13.328;2023-06-14T05:29:07;16.00;21.80
47576;DHT22;33304;52.456;13.328;2023-06-14T05:31:34;16.10;22.10
47576;DHT22;33304;52.456;13.328;2023-06-14T05:34:01;16.20;21.60
47576;DHT22;33304;52.456;13.328;2023-06-14T05:36:28;16.30;21.20
47576;DHT22;33304;52.456;13.328;2023-06-14T05:38:56;16.40;20.60
47576;DHT22;33304;52.456;13.328;2023-06-14T05:41:25;16.50;20.10
47576;DHT22;33304;52.456;13.328;2023-06-14T05:43:54;16.60;19.80
47576;DHT22;33304;52.456;13.328;2023-06-14T05:46:21;16.60;19.60
47576;DHT22;33304;52.456;13.328;2023-06-14T05:48:51;16.60;19.10
47576;DHT22;33304;52.456;13.328;2023-06-14T05:51:18;16.70;19.20
47576;DHT22;33304;52.456;13.328;2023-06-14T05:53:46;16.80;19.50
47576;DHT22;33304;52.456;13.328;2023-06-14T05:56:15;16.80;19.10
47576;DHT22;33304;52.456;13.328;2023-06-14T05:58:44;16.90;19.10
47576;DHT22;33304;52.456;13.328;2023-06-14T06:01:11;17.00;18.90
47576;DHT22;33304;52.456;13.328;2023-06-14T06:03:39;17.00;18.60
47576;DHT22;33304;52.456;13.328;2023-06-14T06:06:06;17.00;18.60
47576;DHT22;33304;52.456;13.328;2023-06-14T06:08:34;17.00;18.40
47576;DHT22;33304;52.456;13.328;2023-06-14T06:11:01;17.00;18.50
47576;DHT22;33304;52.456;13.328;2023-06-14T06:13:29;16.90;18.60
47576;DHT22;33304;52.456;13.328;2023-06-14T06:15:56;16.90;18.80
47576;DHT22;33304;52.456;13.328;2023-06-14T06:18:23;17.00;18.70
47576;DHT22;33304;52.456;13.328;2023-06-14T06:20:50;17.10;19.20
47576;DHT22;33304;52.456;13.328;2023-06-14T06:23:17;17.10;18.90
47576;DHT22;33304;52.456;13.328;2023-06-14T06:25:44;17.20;18.40
47576;DHT22;33304;52.456;13.328;2023-06-14T06:28:11;17.20;18.90
47576;DHT22;33304;52.456;13.328;2023-06-14T06:30:40;17.20;19.20
47576;DHT22;33304;52.456;13.328;2023-06-14T06:33:07;17.30;18.90
47576;DHT22;33304;52.456;13.328;2023-06-14T06:35:34;17.30;18.50
47576;DHT22;33304;52.456;13.328;2023-06-14T06:38:01;17.20;18.70
47576;DHT22;33304;52.456;13.328;2023-06-14T06:40:28;17.20;18.70
47576;DHT22;33304;52.456;13.328;2023-06-14T06:42:55;17.20;19.10
47576;DHT22;33304;52.456;13.328;2023-06-14T06:45:26;17.20;19.50
47576;DHT22;33304;52.456;13.328;2023-06-14T06:47:54;17.30;18.80
47576;DHT22;33304;52.456;13.328;2023-06-14T06:50:22;17.30;18.70
47576;DHT22;33304;52.456;13.328;2023-06-14T06:52:50;17.30;18.70
47576;DHT22;33304;52.456;13.328;2023-06-14T06:55:18;17.30;19.10
47576;DHT22;33304;52.456;13.328;2023-06-14T06:57:46;17.40;18.80
47576;DHT22;33304;52.456;13.328;2023-06-14T07:00:13;17.40;19.40
47576;DHT22;33304;52.456;13.328;2023-06-14T07:02:40;17.50;18.40
47576;DHT22;33304;52.456;13.328;2023-06-14T07:05:09;17.60;17.90
47576;DHT22;33304;52.456;13.328;2023-06-14T07:07:36;17.80;17.80
47576;DHT22;33304;52.456;13.328;2023-06-14T07:10:03;17.80;17.80
47576;DHT22;33304;52.456;13.328;2023-06-14T07:12:31;17.90;17.90
47576;DHT22;33304;52.456;13.328;2023-06-14T07:14:59;18.00;17.90
47576;DHT22;33304;52.456;13.328;2023-06-14T07:17:28;18.10;18.00
47576;DHT22;33304;52.456;13.328;2023-06-14T07:19:55;18.10;18.10
47576;DHT22;33304;52.456;13.328;2023-06-14T07:22:24;18.20;18.00
47576;DHT22;33304;52.456;13.328;2023-06-14T07:24:51;18.30;17.70
47576;DHT22;33304;52.456;13.328;2023-06-14T07:27:18;18.40;16.80
47576;DHT22;33304;52.456;13.328;2023-06-14T07:29:45;18.50;17.20
47576;DHT22;33304;52.456;13.328;2023-06-14T07:32:12;18.70;16.80
47576;DHT22;33304;52.456;13.328;2023-06-14T07:34:39;18.70;15.70
47576;DHT22;33304;52.456;13.328;2023-06-14T07:37:06;18.70;15.40
47576;DHT22;33304;52.456;13.328;2023-06-14T07:39:35;18.80;16.00
47576;DHT22;33304;52.456;13.328;2023-06-14T07:42:02;19.00;16.40
47576;DHT22;33304;52.456;13.328;2023-06-14T07:44:29;19.30;15.10
47576;DHT22;33304;52.456;13.328;2023-06-14T07:46:57;19.40;14.80
47576;DHT22;33304;52.456;13.328;2023-06-14T07:49:25;19.40;14.20
47576;DHT22;33304;52.456;13.328;2023-06-14T07:51:52;19.10;14.40
47576;DHT22;33304;52.456;13.328;2023-06-14T07:54:20;19.00;15.40
47576;DHT22;33304;52.456;13.328;2023-06-14T07:56:52;18.90;15.00
47576;DHT22;33304;52.456;13.328;2023-06-14T07:59:19;18.90;15.10
47576;DHT22;33304;52.456;13.328;2023-06-14T08:01:46;18.90;15.30
47576;DHT22;33304;52.456;13.328;2023-06-14T08:04:14;19.00;14.80
47576;DHT22;33304;52.456;13.328;2023-06-14T08:06:41;19.10;14.90
47576;DHT22;33304;52.456;13.328;2023-06-14T08:09:10;19.30;14.40
47576;DHT22;33304;52.456;13.328;2023-06-14T08:11:37;19.30;14.30
47576;DHT22;33304;52.456;13.328;2023-06-14T08:14:05;19.40;14.10
47576;DHT22;33304;52.456;13.328;2023-06-14T08:16:32;19.30;13.90
47576;DHT22;33304;52.456;13.328;2023-06-14T08:18:59;19.30;14.90
47576;DHT22;33304;52.456;13.328;2023-06-14T08:21:27;19.40;13.90
47576;DHT22;33304;52.456;13.328;2023-06-14T08:23:55;19.60;14.10
47576;DHT22;33304;52.456;13.328;2023-06-14T08:26:22;19.80;13.10
47576;DHT22;33304;52.456;13.328;2023-06-14T08:28:49;19.90;13.40
47576;DHT22;33304;52.456;13.328;2023-06-14T08:31:17;19.90;12.70
47576;DHT22;33304;52.456;13.328;2023-06-14T08:33:44;19.90;12.80
47576;DHT22;33304;52.456;13.328;2023-06-14T08:36:11;20.00;12.40
47576;DHT22;33304;52.456;13.328;2023-06-14T08:38:39;20.00;12.00
47576;DHT22;33304;52.456;13.328;2023-06-14T08:41:06;20.00;12.10
47576;DHT22;33304;52.456;13.328;2023-06-14T08:43:34;20.00;11.40
47576;DHT22;33304;52.456;13.328;2023-06-14T08:46:06;20.00;11.50
47576;DHT22;33304;52.456;13.328;2023-06-14T08:48:35;20.10;11.20
47576;DHT22;33304;52.456;13.328;2023-06-14T08:51:04;20.10;12.00
47576;DHT22;33304;52.456;13.328;2023-06-14T08:53:32;20.30;10.90
47576;DHT22;33304;52.456;13.328;2023-06-14T08:56:00;20.20;10.70
47576;DHT22;33304;52.456;13.328;2023-06-14T08:58:27;20.20;10.80
47576;DHT22;33304;52.456;13.328;2023-06-14T09:00:55;20.40;10.60
47576;DHT22;33304;52.456;13.328;2023-06-14T09:03:23;20.50;9.70
47576;DHT22;33304;52.456;13.328;2023-06-14T09:05:57;20.60;9.70
47576;DHT22;33304;52.456;13.328;2023-06-14T09:08:27;20.80;9.90
47576;DHT22;33304;52.456;13.328;2023-06-14T09:10:56;20.90;9.30
47576;DHT22;33304;52.456;13.328;2023-06-14T09:13:23;21.10;9.60
47576;DHT22;33304;52.456;13.328;2023-06-14T09:15:51;21.10;8.30
47576;DHT22;33304;52.456;13.328;2023-06-14T09:18:18;21.00;10.00
47576;DHT22;33304;52.456;13.328;2023-06-14T09:20:47;21.00;7.60
47576;DHT22;33304;52.456;13.328;2023-06-14T09:23:20;21.00;8.00
47576;DHT22;33304;52.456;13.328;2023-06-14T09:25:47;21.00;8.50
47576;DHT22;33304;52.456;13.328;2023-06-14T09:28:15;21.00;8.40
47576;DHT22;33304;52.456;13.328;2023-06-14T09:30:42;21.10;8.10
47576;DHT22;33304;52.456;13.328;2023-06-14T09:33:09;21.20;8.40
47576;DHT22;33304;52.456;13.328;2023-06-14T09:35:36;21.20;8.30
47576;DHT22;33304;52.456;13.328;2023-06-14T09:38:03;21.10;9.70
47576;DHT22;33304;52.456;13.328;2023-06-14T09:40:35;21.20;8.80
47576;DHT22;33304;52.456;13.328;2023-06-14T09:43:06;21.40;8.40
47576;DHT22;33304;52.456;13.328;2023-06-14T09:45:34;21.40;8.00
47576;DHT22;33304;52.456;13.328;2023-06-14T09:48:01;21.50;9.00
47576;DHT22;33304;52.456;13.328;2023-06-14T09:50:28;21.60;9.20
47576;DHT22;33304;52.456;13.328;2023-06-14T09:52:59;21.80;7.80
47576;DHT22;33304;52.456;13.328;2023-06-14T09:55:31;21.80;7.00
47576;DHT22;33304;52.456;13.328;2023-06-14T09:58:04;21.70;7.20
47576;DHT22;33304;52.456;13.328;2023-06-14T10:00:32;21.80;6.10
47576;DHT22;33304;52.456;13.328;2023-06-14T10:03:03;21.90;6.50
47576;DHT22;33304;52.456;13.328;2023-06-14T10:05:34;22.00;6.40
47576;DHT22;33304;52.456;13.328;2023-06-14T10:08:06;21.90;5.50
47576;DHT22;33304;52.456;13.328;2023-06-14T10:10:35;22.00;5.30
47576;DHT22;33304;52.456;13.328;2023-06-14T10:13:04;21.80;5.30
47576;DHT22;33304;52.456;13.328;2023-06-14T10:15:35;21.70;5.70
47576;DHT22;33304;52.456;13.328;2023-06-14T10:18:11;21.70;6.30
47576;DHT22;33304;52.456;13.328;2023-06-14T10:20:53;21.80;7.30
47576;DHT22;33304;52.456;13.328;2023-06-14T10:23:23;21.90;5.60
47576;DHT22;33304;52.456;13.328;2023-06-14T10:25:56;21.80;6.70
47576;DHT22;33304;52.456;13.328;2023-06-14T10:28:25;22.00;5.60
47576;DHT22;33304;52.456;13.328;2023-06-14T10:31:02;21.90;5.50
47576;DHT22;33304;52.456;13.328;2023-06-14T10:33:29;21.90;5.50
47576;DHT22;33304;52.456;13.328;2023-06-14T10:36:07;22.00;4.70
47576;DHT22;33304;52.456;13.328;2023-06-14T10:38:36;21.80;5.00
47576;DHT22;33304;52.456;13.328;2023-06-14T10:41:04;21.80;5.10
47576;DHT22;33304;52.456;13.328;2023-06-14T10:43:32;21.80;5.70
47576;DHT22;33304;52.456;13.328;2023-06-14T10:46:15;21.70;5.20
47576;DHT22;33304;52.456;13.328;2023-06-14T10:48:43;21.40;5.70
47576;DHT22;33304;52.456;13.328;2023-06-14T10:51:18;21.40;5.90
47576;DHT22;33304;52.456;13.328;2023-06-14T10:53:47;21.60;5.60
47576;DHT22;33304;52.456;13.328;2023-06-14T10:56:27;21.50;5.30
47576;DHT22;33304;52.456;13.328;2023-06-14T10:58:56;21.70;5.20
47576;DHT22;33304;52.456;13.328;2023-06-14T11:01:33;21.60;5.70
47576;DHT22;33304;52.456;13.328;2023-06-14T11:04:07;21.80;5.60
47576;DHT22;33304;52.456;13.328;2023-06-14T11:06:47;21.90;5.10
47576;DHT22;33304;52.456;13.328;2023-06-14T11:09:39;22.00;4.50
47576;DHT22;33304;52.456;13.328;2023-06-14T11:12:12;21.90;4.40
47576;DHT22;33304;52.456;13.328;2023-06-14T11:14:41;22.00;5.40
47576;DHT22;33304;52.456;13.328;2023-06-14T11:17:08;22.20;4.60
47576;DHT22;33304;52.456;13.328;2023-06-14T11:19:35;22.00;4.60
47576;DHT22;33304;52.456;13.328;2023-06-14T11:22:03;22.10;4.40
47576;DHT22;33304;52.456;13.328;2023-06-14T11:24:32;22.20;3.90
47576;DHT22;33304;52.456;13.328;2023-06-14T11:26:59;22.30;3.80
47576;DHT22;33304;52.456;13.328;2023-06-14T11:29:29;22.40;3.40
47576;DHT22;33304;52.456;13.328;2023-06-14T11:31:57;22.60;3.20
47576;DHT22;33304;52.456;13.328;2023-06-14T11:34:24;22.80;3.50
47576;DHT22;33304;52.456;13.328;2023-06-14T11:36:51;23.10;2.90
47576;DHT22;33304;52.456;13.328;2023-06-14T11:39:24;23.40;2.90
47576;DHT22;33304;52.456;13.328;2023-06-14T11:41:52;23.60;1.50
47576;DHT22;33304;52.456;13.328;2023-06-14T11:44:19;23.90;3.10
47576;DHT22;33304;52.456;13.328;2023-06-14T11:46:46;23.90;1.00
47576;DHT22;33304;52.456;13.328;2023-06-14T11:49:14;23.90;1.60
47576;DHT22;33304;52.456;13.328;2023-06-14T11:51:42;23.70;1.10
47576;DHT22;33304;52.456;13.328;2023-06-14T11:54:10;23.60;1.40
47576;DHT22;33304;52.456;13.328;2023-06-14T11:56:37;23.70;1.40
47576;DHT22;33304;52.456;13.328;2023-06-14T11:59:05;24.00;1.60
47576;DHT22;33304;52.456;13.328;2023-06-14T12:01:35;24.10;1.00
47576;DHT22;33304;52.456;13.328;2023-06-14T12:04:04;24.20;1.00
47576;DHT22;33304;52.456;13.328;2023-06-14T12:06:32;24.50;1.00
47576;DHT22;33304;52.456;13.328;2023-06-14T12:09:05;24.20;1.00
47576;DHT22;33304;52.456;13.328;2023-06-14T12:11:38;23.80;1.00
47576;DHT22;33304;52.456;13.328;2023-06-14T12:14:06;24.20;1.40
47576;DHT22;33304;52.456;13.328;2023-06-14T12:16:36;24.10;1.00
47576;DHT22;33304;52.456;13.328;2023-06-14T12:19:12;24.40;1.00
47576;DHT22;33304;52.456;13.328;2023-06-14T12:21:42;24.90;1.00
47576;DHT22;33304;52.456;13.328;2023-06-14T12:24:12;25.40;1.00
47576;DHT22;33304;52.456;13.328;2023-06-14T12:26:39;25.60;1.00
47576;DHT22;33304;52.456;13.328;2023-06-14T12:29:07;25.50;1.00
47576;DHT22;33304;52.456;13.328;2023-06-14T12:31:34;25.70;1.00
47576;DHT22;33304;52.456;13.328;2023-06-14T12:34:03;26.10;1.00
47576;DHT22;33304;52.456;13.328;2023-06-14T12:36:30;26.60;1.00
47576;DHT22;33304;52.456;13.328;2023-06-14T12:38:59;26.90;1.00
47576;DHT22;33304;52.456;13.328;2023-06-14T12:41:26;26.60;1.00
47576;DHT22;33304;52.456;13.328;2023-06-14T12:43:53;27.30;1.00
47576;DHT22;33304;52.456;13.328;2023-06-14T12:46:21;28.10;1.00
47576;DHT22;33304;52.456;13.328;2023-06-14T12:48:48;28.10;1.00
47576;DHT22;33304;52.456;13.328;2023-06-14T12:51:15;28.50;1.00
47576;DHT22;33304;52.456;13.328;2023-06-14T12:53:42;28.40;1.00
47576;DHT22;33304;52.456;13.328;2023-06-14T12:56:11;28.10;1.00
47576;DHT22;33304;52.456;13.328;2023-06-14T12:58:38;28.20;1.00
47576;DHT22;33304;52.456;13.328;2023-06-14T13:01:05;28.90;1.00
47576;DHT22;33304;52.456;13.328;2023-06-14T13:03:32;29.70;1.00
47576;DHT22;33304;52.456;13.328;2023-06-14T13:06:00;29.80;1.00
47576;DHT22;33304;52.456;13.328;2023-06-14T13:08:27;29.60;1.00
47576;DHT22;33304;52.456;13.328;2023-06-14T13:10:54;29.40;1.00
47576;DHT22;33304;52.456;13.328;2023-06-14T13:13:23;28.70;1.00
47576;DHT22;33304;52.456;13.328;2023-06-14T13:15:50;28.60;1.00
47576;DHT22;33304;52.456;13.328;2023-06-14T13:18:17;28.10;1.00
47576;DHT22;33304;52.456;13.328;2023-06-14T13:20:45;29.00;1.00
47576;DHT22;33304;52.456;13.328;2023-06-14T13:23:12;29.80;1.00
47576;DHT22;33304;52.456;13.328;2023-06-14T13:25:40;30.70;1.00
47576;DHT22;33304;52.456;13.328;2023-06-14T13:28:07;30.50;1.00
47576;DHT22;33304;52.456;13.328;2023-06-14T13:30:36;30.60;1.00
47576;DHT22;33304;52.456;13.328;2023-06-14T13:33:04;31.00;1.00
47576;DHT22;33304;52.456;13.328;2023-06-14T13:35:31;31.10;1.00
47576;DHT22;33304;52.456;13.328;2023-06-14T13:37:58;30.50;1.00
47576;DHT22;33304;52.456;13.328;2023-06-14T13:40:25;30.40;1.00
47576;DHT22;33304;52.456;13.328;2023-06-14T13:42:52;30.40;1.00
47576;DHT22;33304;52.456;13.328;2023-06-14T13:45:19;30.50;1.00
47576;DHT22;33304;52.456;13.328;2023-06-14T13:47:47;30.50;1.00
47576;DHT22;33304;52.456;13.328;2023-06-14T13:50:15;31.00;1.00
47576;DHT22;33304;52.456;13.328;2023-06-14T13:52:42;30.60;1.00
47576;DHT22;33304;52.456;13.328;2023-06-14T13:55:10;29.80;1.00
47576;DHT22;33304;52.456;13.328;2023-06-14T13:57:37;30.20;1.00
47576;DHT22;33304;52.456;13.328;2023-06-14T14:00:05;30.90;1.00
47576;DHT22;33304;52.456;13.328;2023-06-14T14:02:41;31.10;1.00
47576;DHT22;33304;52.456;13.328;2023-06-14T14:05:10;30.80;1.00
47576;DHT22;33304;52.456;13.328;2023-06-14T14:07:37;31.20;1.00
47576;DHT22;33304;52.456;13.328;2023-06-14T14:10:06;31.40;1.00
47576;DHT22;33304;52.456;13.328;2023-06-14T14:12:33;30.30;1.00
47576;DHT22;33304;52.456;13.328;2023-06-14T14:15:00;29.60;1.00
47576;DHT22;33304;52.456;13.328;2023-06-14T14:17:27;30.10;1.00
47576;DHT22;33304;52.456;13.328;2023-06-14T14:19:54;30.70;1.00
47576;DHT22;33304;52.456;13.328;2023-06-14T14:22:23;30.20;1.00
47576;DHT22;33304;52.456;13.328;2023-06-14T14:24:50;29.60;1.00
47576;DHT22;33304;52.456;13.328;2023-06-14T14:27:17;29.20;1.00
47576;DHT22;33304;52.456;13.328;2023-06-14T14:29:44;29.00;1.00
47576;DHT22;33304;52.456;13.328;2023-06-14T14:32:11;29.40;1.00
47576;DHT22;33304;52.456;13.328;2023-06-14T14:34:40;29.20;1.00
47576;DHT22;33304;52.456;13.328;2023-06-14T14:37:07;29.10;1.00
47576;DHT22;33304;52.456;13.328;2023-06-14T14:39:36;28.80;1.00
47576;DHT22;33304;52.456;13.328;2023-06-14T14:42:04;28.10;1.00
47576;DHT22;33304;52.456;13.328;2023-06-14T14:44:31;27.60;1.00
47576;DHT22;33304;52.456;13.328;2023-06-14T14:46:58;27.10;1.00
47576;DHT22;33304;52.456;13.328;2023-06-14T14:49:25;26.30;1.00
47576;DHT22;33304;52.456;13.328;2023-06-14T14:51:52;26.00;1.00
47576;DHT22;33304;52.456;13.328;2023-06-14T14:54:19;25.90;1.00
47576;DHT22;33304;52.456;13.328;2023-06-14T14:56:48;25.90;1.00
47576;DHT22;33304;52.456;13.328;2023-06-14T14:59:15;25.80;1.00
47576;DHT22;33304;52.456;13.328;2023-06-14T15:01:42;25.60;1.00
47576;DHT22;33304;52.456;13.328;2023-06-14T15:04:09;25.50;1.00
47576;DHT22;33304;52.456;13.328;2023-06-14T15:06:37;25.30;1.00
47576;DHT22;33304;52.456;13.328;2023-06-14T15:09:05;25.30;1.00
47576;DHT22;33304;52.456;13.328;2023-06-14T15:11:32;25.10;1.00
47576;DHT22;33304;52.456;13.328;2023-06-14T15:14:01;24.60;1.00
47576;DHT22;33304;52.456;13.328;2023-06-14T15:16:28;24.50;1.00
47576;DHT22;33304;52.456;13.328;2023-06-14T15:18:55;24.40;1.00
47576;DHT22;33304;52.456;13.328;2023-06-14T15:21:22;24.30;1.00
47576;DHT22;33304;52.456;13.328;2023-06-14T15:23:49;24.20;1.00
47576;DHT22;33304;52.456;13.328;2023-06-14T15:26:17;24.20;1.00
47576;DHT22;33304;52.456;13.328;2023-06-14T15:28:44;24.20;1.00
47576;DHT22;33304;52.456;13.328;2023-06-14T15:31:12;24.10;1.00